sensor_id;sensor_type;location;lat;lon;timestamp;pressure;altitude;pressure_sealevel;temperature;humidity
10145;BME280;5113;41.822;23.564;2023-02-26T00:02:53;-11234.19;;;10.84;83.92
10145;BME280;5113;41.822;23.564;2023-02-26T00:05:59;-11230.22;;;10.70;85.23
10145;BME280;5113;41.822;23.564;2023-02-26T00:09:08;-11239.22;;;11.02;79.79
10145;BME280;5113;41.822;23.564;2023-02-26T00:12:15;-11244.88;;;11.22;76.03
10145;BME280;5113;41.822;23.564;2023-02-26T00:15:22;-11233.47;;;10.81;82.38
10145;BME280;5113;41.822;23.564;2023-02-26T00:18:29;-11228.13;;;10.62;85.62
10145;BME280;5113;41.822;23.564;2023-02-26T00:21:35;-11231.63;;;10.75;85.04
10145;BME280;5113;41.822;23.564;2023-02-26T00:24:43;-11227.28;;;10.59;87.13
10145;BME280;5113;41.822;23.564;2023-02-26T00:27:50;-11232.75;;;10.79;86.14
10145;BME280;5113;41.822;23.564;2023-02-26T00:30:57;-11231.91;;;10.76;87.56
10145;BME280;5113;41.822;23.564;2023-02-26T00:34:03;-11226.00;;;10.54;86.43
10145;BME280;5113;41.822;23.564;2023-02-26T00:37:15;-11228.53;;;10.64;89.90
10145;BME280;5113;41.822;23.564;2023-02-26T00:40:34;-11237.00;;;10.94;84.24
10145;BME280;5113;41.822;23.564;2023-02-26T00:43:42;-11239.22;;;11.02;84.57
10145;BME280;5113;41.822;23.564;2023-02-26T00:46:53;-11233.59;;;10.82;86.19
10145;BME280;5113;41.822;23.564;2023-02-26T00:50:10;-11229.09;;;10.66;88.35
10145;BME280;5113;41.822;23.564;2023-02-26T00:53:22;-11225.88;;;10.54;87.72
10145;BME280;5113;41.822;23.564;2023-02-26T00:56:33;-11237.00;;;10.94;82.93
10145;BME280;5113;41.822;23.564;2023-02-26T00:59:39;-11233.88;;;10.83;84.28
10145;BME280;5113;41.822;23.564;2023-02-26T01:02:45;-11235.72;;;10.89;82.20
10145;BME280;5113;41.822;23.564;2023-02-26T01:05:52;-11242.47;;;11.14;76.67
10145;BME280;5113;41.822;23.564;2023-02-26T01:09:02;-11241.19;;;11.09;77.37
10145;BME280;5113;41.822;23.564;2023-02-26T01:12:12;-11236.72;;;10.93;76.06
10145;BME280;5113;41.822;23.564;2023-02-26T01:15:22;-11235.03;;;10.87;80.96
10145;BME280;5113;41.822;23.564;2023-02-26T01:18:32;-11232.63;;;10.78;84.44
10145;BME280;5113;41.822;23.564;2023-02-26T01:21:48;-11225.44;;;10.52;88.79
10145;BME280;5113;41.822;23.564;2023-02-26T01:25:03;-11227.69;;;10.61;86.07
10145;BME280;5113;41.822;23.564;2023-02-26T01:28:11;-11243.59;;;11.18;75.44
10145;BME280;5113;41.822;23.564;2023-02-26T01:31:29;-11230.78;;;10.72;85.28
10145;BME280;5113;41.822;23.564;2023-02-26T01:34:41;-11232.47;;;10.78;86.95
10145;BME280;5113;41.822;23.564;2023-02-26T01:37:54;-11225.88;;;10.54;90.93
10145;BME280;5113;41.822;23.564;2023-02-26T01:44:37;-11221.09;;;10.37;96.50
10145;BME280;5113;41.822;23.564;2023-02-26T01:47:50;-11224.03;;;10.47;90.89
10145;BME280;5113;41.822;23.564;2023-02-26T01:50:59;-11234.75;;;10.86;82.52
10145;BME280;5113;41.822;23.564;2023-02-26T01:54:05;-11235.72;;;10.89;83.16
10145;BME280;5113;41.822;23.564;2023-02-26T01:57:14;-11237.28;;;10.95;85.10
10145;BME280;5113;41.822;23.564;2023-02-26T02:00:23;-11235.16;;;10.87;83.43
10145;BME280;5113;41.822;23.564;2023-02-26T02:03:32;-11239.22;;;11.02;84.61
10145;BME280;5113;41.822;23.564;2023-02-26T02:06:41;-11219.97;;;10.33;93.21
10145;BME280;5113;41.822;23.564;2023-02-26T02:09:48;-11217.44;;;10.23;99.77
10145;BME280;5113;41.822;23.564;2023-02-26T02:13:02;-11219.25;;;10.30;100.00
10145;BME280;5113;41.822;23.564;2023-02-26T02:16:16;-11216.16;;;10.19;100.00
10145;BME280;5113;41.822;23.564;2023-02-26T02:19:39;-11212.38;;;10.05;100.00
10145;BME280;5113;41.822;23.564;2023-02-26T02:23:01;-11215.59;;;10.17;100.00
10145;BME280;5113;41.822;23.564;2023-02-26T02:26:36;-11213.63;;;10.10;100.00
10145;BME280;5113;41.822;23.564;2023-02-26T02:29:53;-11213.91;;;10.11;100.00
10145;BME280;5113;41.822;23.564;2023-02-26T02:33:12;-11210.69;;;9.99;100.00
10145;BME280;5113;41.822;23.564;2023-02-26T02:36:33;-11213.91;;;10.11;100.00
10145;BME280;5113;41.822;23.564;2023-02-26T02:39:44;-11215.19;;;10.15;100.00
10145;BME280;5113;41.822;23.564;2023-02-26T02:42:56;-11219.81;;;10.32;99.77
10145;BME280;5113;41.822;23.564;2023-02-26T02:46:06;-11213.63;;;10.10;100.00
10145;BME280;5113;41.822;23.564;2023-02-26T02:49:18;-11223.06;;;10.44;93.50
10145;BME280;5113;41.822;23.564;2023-02-26T02:52:31;-11222.91;;;10.43;94.45
10145;BME280;5113;41.822;23.564;2023-02-26T02:55:42;-11225.44;;;10.52;95.09
10145;BME280;5113;41.822;23.564;2023-02-26T02:58:55;-11224.47;;;10.49;90.65
10145;BME280;5113;41.822;23.564;2023-02-26T03:02:12;-11230.09;;;10.69;84.71
10145;BME280;5113;41.822;23.564;2023-02-26T03:05:20;-11232.19;;;10.77;81.59
10145;BME280;5113;41.822;23.564;2023-02-26T03:08:28;-11233.59;;;10.82;81.83
10145;BME280;5113;41.822;23.564;2023-02-26T03:11:35;-11229.09;;;10.66;82.55
10145;BME280;5113;41.822;23.564;2023-02-26T03:14:42;-11227.28;;;10.59;84.40
10145;BME280;5113;41.822;23.564;2023-02-26T03:17:53;-11225.44;;;10.52;86.00
10145;BME280;5113;41.822;23.564;2023-02-26T03:21:10;-11223.91;;;10.47;86.51
10145;BME280;5113;41.822;23.564;2023-02-26T03:24:23;-11223.75;;;10.46;85.81
10145;BME280;5113;41.822;23.564;2023-02-26T03:27:35;-11219.53;;;10.31;87.67
10145;BME280;5113;41.822;23.564;2023-02-26T03:30:50;-11216.72;;;10.21;87.50
10145;BME280;5113;41.822;23.564;2023-02-26T03:34:02;-11211.94;;;10.04;90.85
10145;BME280;5113;41.822;23.564;2023-02-26T03:37:16;-11211.09;;;10.01;90.61
10145;BME280;5113;41.822;23.564;2023-02-26T03:40:26;-11210.53;;;9.99;91.11
10145;BME280;5113;41.822;23.564;2023-02-26T03:43:37;-11213.63;;;10.10;91.85
10145;BME280;5113;41.822;23.564;2023-02-26T03:46:47;-11216.59;;;10.20;90.15
10145;BME280;5113;41.822;23.564;2023-02-26T03:49:56;-11209.13;;;9.93;92.83
10145;BME280;5113;41.822;23.564;2023-02-26T03:53:11;-11218.13;;;10.26;80.73
10145;BME280;5113;41.822;23.564;2023-02-26T03:56:24;-11224.88;;;10.50;77.31
10145;BME280;5113;41.822;23.564;2023-02-26T03:59:32;-11222.63;;;10.42;76.95
10145;BME280;5113;41.822;23.564;2023-02-26T04:02:44;-11223.47;;;10.45;77.29
10145;BME280;5113;41.822;23.564;2023-02-26T04:05:53;-11222.22;;;10.41;75.93
10145;BME280;5113;41.822;23.564;2023-02-26T04:09:02;-11220.38;;;10.34;76.62
10145;BME280;5113;41.822;23.564;2023-02-26T04:12:09;-11219.97;;;10.33;76.16
10145;BME280;5113;41.822;23.564;2023-02-26T04:15:16;-11223.34;;;10.45;72.70
10145;BME280;5113;41.822;23.564;2023-02-26T04:18:22;-11224.03;;;10.47;71.21
10145;BME280;5113;41.822;23.564;2023-02-26T04:21:28;-11226.00;;;10.54;70.40
10145;BME280;5113;41.822;23.564;2023-02-26T04:24:36;-11228.53;;;10.64;70.75
10145;BME280;5113;41.822;23.564;2023-02-26T04:27:43;-11228.81;;;10.65;68.88
10145;BME280;5113;41.822;23.564;2023-02-26T04:30:49;-11230.50;;;10.71;68.52
10145;BME280;5113;41.822;23.564;2023-02-26T04:33:56;-11228.13;;;10.62;69.41
10145;BME280;5113;41.822;23.564;2023-02-26T04:37:02;-11228.25;;;10.63;67.73
10145;BME280;5113;41.822;23.564;2023-02-26T04:40:11;-11231.63;;;10.75;66.91
10145;BME280;5113;41.822;23.564;2023-02-26T04:43:17;-11228.25;;;10.63;68.72
10145;BME280;5113;41.822;23.564;2023-02-26T04:46:23;-11230.50;;;10.71;68.02
10145;BME280;5113;41.822;23.564;2023-02-26T04:49:30;-11232.19;;;10.77;67.03
10145;BME280;5113;41.822;23.564;2023-02-26T04:52:36;-11231.63;;;10.75;67.73
10145;BME280;5113;41.822;23.564;2023-02-26T04:55:46;-11227.69;;;10.61;68.51
10145;BME280;5113;41.822;23.564;2023-02-26T04:58:56;-11229.37;;;10.67;67.94
10145;BME280;5113;41.822;23.564;2023-02-26T05:02:02;-11227.69;;;10.61;69.72
10145;BME280;5113;41.822;23.564;2023-02-26T05:05:08;-11228.25;;;10.63;69.40
10145;BME280;5113;41.822;23.564;2023-02-26T05:08:14;-11227.69;;;10.61;69.53
10145;BME280;5113;41.822;23.564;2023-02-26T05:11:21;-11229.94;;;10.69;68.47
10145;BME280;5113;41.822;23.564;2023-02-26T05:14:27;-11229.09;;;10.66;68.87
10145;BME280;5113;41.822;23.564;2023-02-26T05:17:34;-11228.25;;;10.63;69.28
10145;BME280;5113;41.822;23.564;2023-02-26T05:20:40;-11230.50;;;10.71;68.10
10145;BME280;5113;41.822;23.564;2023-02-26T05:23:46;-11229.37;;;10.67;69.31
10145;BME280;5113;41.822;23.564;2023-02-26T05:26:54;-11232.63;;;10.78;67.60
10145;BME280;5113;41.822;23.564;2023-02-26T05:30:00;-11231.91;;;10.76;67.23
10145;BME280;5113;41.822;23.564;2023-02-26T05:33:07;-11228.41;;;10.63;67.83
10145;BME280;5113;41.822;23.564;2023-02-26T05:36:13;-11231.63;;;10.75;67.21
10145;BME280;5113;41.822;23.564;2023-02-26T05:39:19;-11233.31;;;10.81;66.17
10145;BME280;5113;41.822;23.564;2023-02-26T05:42:26;-11236.84;;;10.94;65.19
10145;BME280;5113;41.822;23.564;2023-02-26T05:45:33;-11237.00;;;10.94;65.19
10145;BME280;5113;41.822;23.564;2023-02-26T05:48:39;-11237.69;;;10.97;66.28
10145;BME280;5113;41.822;23.564;2023-02-26T05:51:48;-11234.19;;;10.84;66.75
10145;BME280;5113;41.822;23.564;2023-02-26T05:54:55;-11234.19;;;10.84;68.39
10145;BME280;5113;41.822;23.564;2023-02-26T05:58:02;-11238.38;;;10.99;67.17
10145;BME280;5113;41.822;23.564;2023-02-26T06:01:08;-11239.50;;;11.03;68.50
10145;BME280;5113;41.822;23.564;2023-02-26T06:04:15;-11234.88;;;10.86;72.32
10145;BME280;5113;41.822;23.564;2023-02-26T06:07:21;-11236.00;;;10.90;74.06
10145;BME280;5113;41.822;23.564;2023-02-26T06:10:28;-11235.44;;;10.88;77.08
10145;BME280;5113;41.822;23.564;2023-02-26T06:13:35;-11236.72;;;10.93;78.52
10145;BME280;5113;41.822;23.564;2023-02-26T06:16:42;-11235.88;;;10.90;79.88
10145;BME280;5113;41.822;23.564;2023-02-26T06:19:48;-11239.78;;;11.04;79.45
10145;BME280;5113;41.822;23.564;2023-02-26T06:22:54;-11238.66;;;11.00;80.69
10145;BME280;5113;41.822;23.564;2023-02-26T06:26:00;-11241.47;;;11.10;80.81
10145;BME280;5113;41.822;23.564;2023-02-26T06:29:08;-11241.47;;;11.10;81.95
10145;BME280;5113;41.822;23.564;2023-02-26T06:32:15;-11236.16;;;10.91;83.87
10145;BME280;5113;41.822;23.564;2023-02-26T06:35:21;-11241.75;;;11.11;83.71
10145;BME280;5113;41.822;23.564;2023-02-26T06:38:28;-11240.91;;;11.08;84.41
10145;BME280;5113;41.822;23.564;2023-02-26T06:41:34;-11238.81;;;11.01;85.81
10145;BME280;5113;41.822;23.564;2023-02-26T06:44:42;-11243.19;;;11.16;81.50
10145;BME280;5113;41.822;23.564;2023-02-26T06:47:48;-11243.88;;;11.19;79.57
10145;BME280;5113;41.822;23.564;2023-02-26T06:50:54;-11250.78;;;11.44;77.36
10145;BME280;5113;41.822;23.564;2023-02-26T06:54:01;-11253.16;;;11.52;77.33
10145;BME280;5113;41.822;23.564;2023-02-26T06:57:07;-11253.03;;;11.52;74.39
10145;BME280;5113;41.822;23.564;2023-02-26T07:00:15;-11252.75;;;11.51;75.79
10145;BME280;5113;41.822;23.564;2023-02-26T07:03:21;-11260.06;;;11.77;73.23
10145;BME280;5113;41.822;23.564;2023-02-26T07:06:28;-11260.19;;;11.78;73.32
10145;BME280;5113;41.822;23.564;2023-02-26T07:09:34;-11259.78;;;11.76;74.03
10145;BME280;5113;41.822;23.564;2023-02-26T07:12:40;-11256.81;;;11.66;74.04
10145;BME280;5113;41.822;23.564;2023-02-26T07:15:48;-11271.03;;;12.17;72.23
10145;BME280;5113;41.822;23.564;2023-02-26T07:18:54;-11267.66;;;12.05;73.57
10145;BME280;5113;41.822;23.564;2023-02-26T07:22:01;-11272.44;;;12.22;74.56
10145;BME280;5113;41.822;23.564;2023-02-26T07:25:07;-11275.13;;;12.32;72.40
10145;BME280;5113;41.822;23.564;2023-02-26T07:28:14;-11280.31;;;12.50;71.78
10145;BME280;5113;41.822;23.564;2023-02-26T07:31:21;-11299.34;;;13.19;69.01
10145;BME280;5113;41.822;23.564;2023-02-26T07:34:28;-11300.31;;;13.23;68.90
10145;BME280;5113;41.822;23.564;2023-02-26T07:37:34;-11298.91;;;13.17;69.57
10145;BME280;5113;41.822;23.564;2023-02-26T07:40:40;-11303.97;;;13.36;69.16
10145;BME280;5113;41.822;23.564;2023-02-26T07:43:47;-11303.69;;;13.35;69.04
10145;BME280;5113;41.822;23.564;2023-02-26T07:46:54;-11275.53;;;12.33;73.24
10145;BME280;5113;41.822;23.564;2023-02-26T07:50:00;-11305.09;;;13.40;70.61
10145;BME280;5113;41.822;23.564;2023-02-26T07:53:07;-11303.00;;;13.32;68.40
10145;BME280;5113;41.822;23.564;2023-02-26T07:56:13;-11310.59;;;13.60;66.96
10145;BME280;5113;41.822;23.564;2023-02-26T07:59:20;-11317.63;;;13.85;66.00
10145;BME280;5113;41.822;23.564;2023-02-26T08:02:28;-11311.00;;;13.61;66.47
10145;BME280;5113;41.822;23.564;2023-02-26T08:05:34;-11325.50;;;14.13;65.05
10145;BME280;5113;41.822;23.564;2023-02-26T08:08:40;-11322.56;;;14.03;65.08
10145;BME280;5113;41.822;23.564;2023-02-26T08:11:46;-11325.38;;;14.13;64.82
10145;BME280;5113;41.822;23.564;2023-02-26T08:14:52;-11329.59;;;14.28;63.75
10145;BME280;5113;41.822;23.564;2023-02-26T08:17:59;-11323.13;;;14.05;64.39
10145;BME280;5113;41.822;23.564;2023-02-26T08:21:06;-11319.03;;;13.90;64.63
10145;BME280;5113;41.822;23.564;2023-02-26T08:24:12;-11323.41;;;14.06;64.58
10145;BME280;5113;41.822;23.564;2023-02-26T08:27:19;-11329.59;;;14.28;64.84
10145;BME280;5113;41.822;23.564;2023-02-26T08:30:25;-11326.22;;;14.16;64.71
10145;BME280;5113;41.822;23.564;2023-02-26T08:33:33;-11316.38;;;13.80;66.67
10145;BME280;5113;41.822;23.564;2023-02-26T08:36:39;-11325.66;;;14.14;66.07
10145;BME280;5113;41.822;23.564;2023-02-26T08:39:46;-11326.38;;;14.16;67.33
10145;BME280;5113;41.822;23.564;2023-02-26T08:42:52;-11330.16;;;14.30;67.04
10145;BME280;5113;41.822;23.564;2023-02-26T08:45:58;-11332.84;;;14.40;65.97
10145;BME280;5113;41.822;23.564;2023-02-26T08:49:05;-11338.91;;;14.62;66.59
10145;BME280;5113;41.822;23.564;2023-02-26T08:52:12;-11340.16;;;14.66;66.25
10145;BME280;5113;41.822;23.564;2023-02-26T08:55:19;-11333.97;;;14.44;67.44
10145;BME280;5113;41.822;23.564;2023-02-26T08:58:25;-11330.31;;;14.31;69.22
10145;BME280;5113;41.822;23.564;2023-02-26T09:01:31;-11340.88;;;14.69;68.63
10145;BME280;5113;41.822;23.564;2023-02-26T09:04:38;-11340.31;;;14.67;68.68
10145;BME280;5113;41.822;23.564;2023-02-26T09:07:45;-11342.56;;;14.75;68.17
10145;BME280;5113;41.822;23.564;2023-02-26T09:10:51;-11328.47;;;14.24;70.67
10145;BME280;5113;41.822;23.564;2023-02-26T09:13:58;-11338.19;;;14.59;70.30
10145;BME280;5113;41.822;23.564;2023-02-26T09:17:06;-11332.41;;;14.38;70.24
10145;BME280;5113;41.822;23.564;2023-02-26T09:20:14;-11348.63;;;14.97;69.14
10145;BME280;5113;41.822;23.564;2023-02-26T09:23:20;-11351.00;;;15.05;66.41
10145;BME280;5113;41.822;23.564;2023-02-26T09:26:26;-11353.41;;;15.14;65.87
10145;BME280;5113;41.822;23.564;2023-02-26T09:29:32;-11352.28;;;15.10;64.68
10145;BME280;5113;41.822;23.564;2023-02-26T09:32:39;-11346.66;;;14.90;66.46
10145;BME280;5113;41.822;23.564;2023-02-26T09:35:48;-11353.25;;;15.13;65.10
10145;BME280;5113;41.822;23.564;2023-02-26T09:38:55;-11360.44;;;15.39;63.89
10145;BME280;5113;41.822;23.564;2023-02-26T09:42:07;-11357.78;;;15.30;63.40
10145;BME280;5113;41.822;23.564;2023-02-26T09:45:24;-11359.31;;;15.35;63.54
10145;BME280;5113;41.822;23.564;2023-02-26T09:48:33;-11347.63;;;14.93;64.56
10145;BME280;5113;41.822;23.564;2023-02-26T09:51:45;-11352.41;;;15.10;63.75
10145;BME280;5113;41.822;23.564;2023-02-26T09:54:57;-11347.78;;;14.94;64.56
10145;BME280;5113;41.822;23.564;2023-02-26T09:58:13;-11355.78;;;15.23;62.93
10145;BME280;5113;41.822;23.564;2023-02-26T10:01:26;-11339.75;;;14.65;65.20
10145;BME280;5113;41.822;23.564;2023-02-26T10:04:47;-11342.84;;;14.76;64.32
10145;BME280;5113;41.822;23.564;2023-02-26T10:07:59;-11340.03;;;14.66;64.98
10145;BME280;5113;41.822;23.564;2023-02-26T10:11:24;-11350.59;;;15.04;64.03
10145;BME280;5113;41.822;23.564;2023-02-26T10:14:33;-11377.06;;;15.99;60.10
10145;BME280;5113;41.822;23.564;2023-02-26T10:17:51;-11379.03;;;16.06;59.21
10145;BME280;5113;41.822;23.564;2023-02-26T10:21:01;-11362.69;;;15.47;62.11
10145;BME280;5113;41.822;23.564;2023-02-26T10:24:14;-11356.94;;;15.27;63.09
10145;BME280;5113;41.822;23.564;2023-02-26T10:27:37;-11348.47;;;14.96;63.34
10145;BME280;5113;41.822;23.564;2023-02-26T10:30:51;-11346.38;;;14.89;64.06
10145;BME280;5113;41.822;23.564;2023-02-26T10:34:13;-11351.00;;;15.05;63.61
10145;BME280;5113;41.822;23.564;2023-02-26T10:37:31;-11356.06;;;15.24;63.36
10145;BME280;5113;41.822;23.564;2023-02-26T10:40:43;-11356.78;;;15.26;63.17
10145;BME280;5113;41.822;23.564;2023-02-26T10:44:00;-11361.72;;;15.44;62.67
10145;BME280;5113;41.822;23.564;2023-02-26T10:47:18;-11358.06;;;15.31;62.93
10145;BME280;5113;41.822;23.564;2023-02-26T10:50:28;-11348.47;;;14.96;63.08
10145;BME280;5113;41.822;23.564;2023-02-26T10:53:35;-11351.72;;;15.08;63.47
10145;BME280;5113;41.822;23.564;2023-02-26T10:56:45;-11363.81;;;15.51;62.33
10145;BME280;5113;41.822;23.564;2023-02-26T10:59:51;-11383.13;;;16.21;61.15
10145;BME280;5113;41.822;23.564;2023-02-26T11:02:59;-11378.06;;;16.03;58.96
10145;BME280;5113;41.822;23.564;2023-02-26T11:06:13;-11389.75;;;16.45;59.43
10145;BME280;5113;41.822;23.564;2023-02-26T11:09:24;-11385.09;;;16.28;59.38
10145;BME280;5113;41.822;23.564;2023-02-26T11:12:32;-11359.19;;;15.35;61.60
10145;BME280;5113;41.822;23.564;2023-02-26T11:15:38;-11361.16;;;15.42;62.43
10145;BME280;5113;41.822;23.564;2023-02-26T11:18:47;-11358.75;;;15.33;62.75
10145;BME280;5113;41.822;23.564;2023-02-26T11:21:55;-11347.78;;;14.94;64.49
10145;BME280;5113;41.822;23.564;2023-02-26T11:25:01;-11340.31;;;14.67;64.06
10145;BME280;5113;41.822;23.564;2023-02-26T11:28:21;-11336.22;;;14.52;66.26
10145;BME280;5113;41.822;23.564;2023-02-26T11:31:29;-11345.38;;;14.85;64.65
10145;BME280;5113;41.822;23.564;2023-02-26T11:34:36;-11343.25;;;14.77;65.21
10145;BME280;5113;41.822;23.564;2023-02-26T11:37:47;-11350.31;;;15.03;64.85
10145;BME280;5113;41.822;23.564;2023-02-26T11:40:55;-11345.09;;;14.84;65.17
10145;BME280;5113;41.822;23.564;2023-02-26T11:44:05;-11331.84;;;14.36;67.00
10145;BME280;5113;41.822;23.564;2023-02-26T11:47:14;-11343.13;;;14.77;66.35
10145;BME280;5113;41.822;23.564;2023-02-26T11:50:22;-11330.03;;;14.30;67.70
10145;BME280;5113;41.822;23.564;2023-02-26T11:53:31;-11341.16;;;14.70;66.26
10145;BME280;5113;41.822;23.564;2023-02-26T11:56:41;-11328.06;;;14.23;67.88
10145;BME280;5113;41.822;23.564;2023-02-26T11:59:51;-11332.69;;;14.39;67.72
10145;BME280;5113;41.822;23.564;2023-02-26T12:03:00;-11323.25;;;14.05;69.20
10145;BME280;5113;41.822;23.564;2023-02-26T12:06:15;-11328.19;;;14.23;70.43
10145;BME280;5113;41.822;23.564;2023-02-26T12:09:24;-11325.38;;;14.13;70.25
10145;BME280;5113;41.822;23.564;2023-02-26T12:12:42;-11325.09;;;14.12;70.54
10145;BME280;5113;41.822;23.564;2023-02-26T12:15:59;-11320.03;;;13.94;71.95
10145;BME280;5113;41.822;23.564;2023-02-26T12:19:12;-11318.34;;;13.87;72.05
10145;BME280;5113;41.822;23.564;2023-02-26T12:22:41;-11319.75;;;13.93;72.72
10145;BME280;5113;41.822;23.564;2023-02-26T12:26:14;-11328.75;;;14.25;71.23
10145;BME280;5113;41.822;23.564;2023-02-26T12:33:17;-11328.34;;;14.24;70.99
10145;BME280;5113;41.822;23.564;2023-02-26T12:36:38;-11326.22;;;14.16;70.54
10145;BME280;5113;41.822;23.564;2023-02-26T12:40:00;-11313.13;;;13.69;71.42
10145;BME280;5113;41.822;23.564;2023-02-26T12:43:12;-11320.88;;;13.97;71.16
10145;BME280;5113;41.822;23.564;2023-02-26T12:46:48;-11317.22;;;13.83;70.54
10145;BME280;5113;41.822;23.564;2023-02-26T12:50:19;-11305.94;;;13.43;71.83
10145;BME280;5113;41.822;23.564;2023-02-26T12:53:44;-11315.53;;;13.77;70.81
10145;BME280;5113;41.822;23.564;2023-02-26T12:57:26;-11322.56;;;14.03;68.63
10145;BME280;5113;41.822;23.564;2023-02-26T13:00:56;-11320.03;;;13.94;68.87
10145;BME280;5113;41.822;23.564;2023-02-26T13:04:31;-11315.94;;;13.79;68.88
10145;BME280;5113;41.822;23.564;2023-02-26T13:08:05;-11318.75;;;13.89;68.63
10145;BME280;5113;41.822;23.564;2023-02-26T13:11:22;-11313.97;;;13.72;69.08
10145;BME280;5113;41.822;23.564;2023-02-26T13:14:42;-11305.25;;;13.40;70.39
10145;BME280;5113;41.822;23.564;2023-02-26T13:17:57;-11303.69;;;13.35;70.86
10145;BME280;5113;41.822;23.564;2023-02-26T13:21:09;-11301.88;;;13.28;71.86
10145;BME280;5113;41.822;23.564;2023-02-26T13:24:21;-11300.75;;;13.24;72.36
10145;BME280;5113;41.822;23.564;2023-02-26T13:27:32;-11296.38;;;13.08;73.28
10145;BME280;5113;41.822;23.564;2023-02-26T13:30:44;-11292.84;;;12.96;74.36
10145;BME280;5113;41.822;23.564;2023-02-26T13:33:57;-11296.66;;;13.09;74.90
10145;BME280;5113;41.822;23.564;2023-02-26T13:37:14;-11287.78;;;12.77;75.58
10145;BME280;5113;41.822;23.564;2023-02-26T13:40:41;-11287.06;;;12.75;74.85
10145;BME280;5113;41.822;23.564;2023-02-26T13:44:00;-11283.84;;;12.63;75.61
10145;BME280;5113;41.822;23.564;2023-02-26T13:47:23;-11290.19;;;12.86;75.25
10145;BME280;5113;41.822;23.564;2023-02-26T13:50:41;-11286.78;;;12.74;74.74
10145;BME280;5113;41.822;23.564;2023-02-26T13:53:56;-11285.81;;;12.70;74.60
10145;BME280;5113;41.822;23.564;2023-02-26T13:57:20;-11278.91;;;12.45;75.84
10145;BME280;5113;41.822;23.564;2023-02-26T14:00:33;-11282.28;;;12.57;76.30
10145;BME280;5113;41.822;23.564;2023-02-26T14:03:45;-11280.59;;;12.51;76.51
10145;BME280;5113;41.822;23.564;2023-02-26T14:06:51;-11284.56;;;12.66;75.98
10145;BME280;5113;41.822;23.564;2023-02-26T14:10:00;-11282.28;;;12.57;76.50
10145;BME280;5113;41.822;23.564;2023-02-26T14:13:13;-11280.03;;;12.49;76.06
10145;BME280;5113;41.822;23.564;2023-02-26T14:16:21;-11276.25;;;12.36;77.47
10145;BME280;5113;41.822;23.564;2023-02-26T14:19:33;-11275.25;;;12.32;77.17
10145;BME280;5113;41.822;23.564;2023-02-26T14:22:42;-11271.59;;;12.19;77.81
10145;BME280;5113;41.822;23.564;2023-02-26T14:25:51;-11273.56;;;12.26;78.73
10145;BME280;5113;41.822;23.564;2023-02-26T14:29:13;-11276.38;;;12.36;77.94
10145;BME280;5113;41.822;23.564;2023-02-26T14:32:26;-11272.44;;;12.22;79.56
10145;BME280;5113;41.822;23.564;2023-02-26T14:35:38;-11278.50;;;12.44;79.50
10145;BME280;5113;41.822;23.564;2023-02-26T14:38:47;-11279.63;;;12.48;78.31
10145;BME280;5113;41.822;23.564;2023-02-26T14:42:00;-11272.88;;;12.23;80.12
10145;BME280;5113;41.822;23.564;2023-02-26T14:45:28;-11274.00;;;12.28;78.60
10145;BME280;5113;41.822;23.564;2023-02-26T14:48:36;-11282.28;;;12.57;77.99
10145;BME280;5113;41.822;23.564;2023-02-26T14:51:51;-11279.34;;;12.47;78.51
10145;BME280;5113;41.822;23.564;2023-02-26T14:55:26;-11278.91;;;12.45;78.02
10145;BME280;5113;41.822;23.564;2023-02-26T15:02:20;-11285.41;;;12.69;77.05
10145;BME280;5113;41.822;23.564;2023-02-26T15:05:40;-11285.69;;;12.70;77.29
10145;BME280;5113;41.822;23.564;2023-02-26T15:09:00;-11276.25;;;12.36;79.22
10145;BME280;5113;41.822;23.564;2023-02-26T15:12:21;-11285.25;;;12.68;77.81
10145;BME280;5113;41.822;23.564;2023-02-26T15:15:39;-11274.56;;;12.30;80.50
10145;BME280;5113;41.822;23.564;2023-02-26T15:19:09;-11278.63;;;12.44;80.08
10145;BME280;5113;41.822;23.564;2023-02-26T15:22:30;-11278.63;;;12.44;80.23
10145;BME280;5113;41.822;23.564;2023-02-26T15:25:43;-11280.03;;;12.49;79.36
10145;BME280;5113;41.822;23.564;2023-02-26T15:28:50;-11277.38;;;12.40;80.55
10145;BME280;5113;41.822;23.564;2023-02-26T15:31:59;-11269.78;;;12.12;82.37
10145;BME280;5113;41.822;23.564;2023-02-26T15:35:14;-11270.19;;;12.14;83.12
10145;BME280;5113;41.822;23.564;2023-02-26T15:38:22;-11275.97;;;12.35;81.86
10145;BME280;5113;41.822;23.564;2023-02-26T15:41:29;-11273.56;;;12.26;82.28
10145;BME280;5113;41.822;23.564;2023-02-26T15:44:36;-11267.66;;;12.05;83.81
10145;BME280;5113;41.822;23.564;2023-02-26T15:48:02;-11272.03;;;12.20;83.13
10145;BME280;5113;41.822;23.564;2023-02-26T15:51:12;-11274.41;;;12.29;82.78
10145;BME280;5113;41.822;23.564;2023-02-26T15:54:21;-11268.50;;;12.08;84.36
10145;BME280;5113;41.822;23.564;2023-02-26T15:57:29;-11270.47;;;12.15;83.47
10145;BME280;5113;41.822;23.564;2023-02-26T16:00:36;-11268.22;;;12.07;84.90
10145;BME280;5113;41.822;23.564;2023-02-26T16:03:43;-11268.22;;;12.07;84.33
10145;BME280;5113;41.822;23.564;2023-02-26T16:06:54;-11268.50;;;12.08;84.88
10145;BME280;5113;41.822;23.564;2023-02-26T16:10:05;-11269.50;;;12.11;84.50
10145;BME280;5113;41.822;23.564;2023-02-26T16:13:14;-11269.06;;;12.10;84.88
10145;BME280;5113;41.822;23.564;2023-02-26T16:16:24;-11264.56;;;11.94;85.64
10145;BME280;5113;41.822;23.564;2023-02-26T16:19:35;-11266.53;;;12.01;85.84
10145;BME280;5113;41.822;23.564;2023-02-26T16:22:48;-11267.94;;;12.06;85.35
10145;BME280;5113;41.822;23.564;2023-02-26T16:25:58;-11266.41;;;12.00;85.79
10145;BME280;5113;41.822;23.564;2023-02-26T16:29:08;-11266.69;;;12.01;86.57
10145;BME280;5113;41.822;23.564;2023-02-26T16:32:16;-11266.53;;;12.01;86.68
10145;BME280;5113;41.822;23.564;2023-02-26T16:35:27;-11268.50;;;12.08;86.24
10145;BME280;5113;41.822;23.564;2023-02-26T16:38:45;-11267.94;;;12.06;87.12
10145;BME280;5113;41.822;23.564;2023-02-26T16:42:14;-11268.09;;;12.06;87.14
10145;BME280;5113;41.822;23.564;2023-02-26T16:45:41;-11265.97;;;11.99;86.70
10145;BME280;5113;41.822;23.564;2023-02-26T16:48:55;-11270.19;;;12.14;86.61
10145;BME280;5113;41.822;23.564;2023-02-26T16:52:04;-11268.78;;;12.09;86.86